createdAt,value
2023-03-22T00:02:30.588Z,63.64
2023-03-22T00:05:03.296Z,63.84
2023-03-22T00:07:35.675Z,63.79
2023-03-22T00:10:11.819Z,63.83
2023-03-22T00:12:44.283Z,63.77
2023-03-22T00:15:16.663Z,63.83
2023-03-22T00:17:50.349Z,63.91
2023-03-22T00:20:23.729Z,63.92
2023-03-22T00:22:56.198Z,63.89
2023-03-22T00:25:28.896Z,63.90
2023-03-22T00:28:01.192Z,64.12
2023-03-22T00:30:33.608Z,64.09
2023-03-22T00:33:06.390Z,64.12
2023-03-22T00:35:38.602Z,64.10
2023-03-22T00:38:14.509Z,64.09
2023-03-22T00:40:47.883Z,64.09
2023-03-22T00:43:20.486Z,63.99
2023-03-22T00:45:52.888Z,64.12
2023-03-22T00:48:25.192Z,64.19
2023-03-22T00:50:57.648Z,64.24
2023-03-22T00:53:30.457Z,64.26
2023-03-22T00:56:02.806Z,64.35
2023-03-22T00:58:40.585Z,64.37
2023-03-22T01:01:14.840Z,64.36
2023-03-22T01:03:50.829Z,64.39
2023-03-22T01:06:23.469Z,64.41
2023-03-22T01:08:57.600Z,64.36
2023-03-22T01:11:30.604Z,64.40
2023-03-22T01:14:03.913Z,64.53
2023-03-22T01:16:36.308Z,64.53
2023-03-22T01:19:08.853Z,64.47
2023-03-22T01:21:41.162Z,64.49
2023-03-22T01:24:13.586Z,64.60
2023-03-22T01:26:46.011Z,64.60
2023-03-22T01:29:18.683Z,64.63
2023-03-22T01:31:51.038Z,64.70
2023-03-22T01:34:23.519Z,64.61
2023-03-22T01:36:56.277Z,64.74
2023-03-22T01:39:29.020Z,64.74
2023-03-22T01:42:05.615Z,64.72
2023-03-22T01:44:39.830Z,64.77
2023-03-22T01:47:12.865Z,64.77
2023-03-22T01:49:45.188Z,64.72
2023-03-22T01:52:18.076Z,64.82
2023-03-22T01:55:09.489Z,64.85
2023-03-22T01:57:47.476Z,64.95
2023-03-22T02:00:27.958Z,64.84
2023-03-22T02:03:20.491Z,64.95
2023-03-22T02:05:53.930Z,64.94
2023-03-22T02:08:27.884Z,64.86
2023-03-22T02:11:05.655Z,64.92
2023-03-22T02:13:56.185Z,65.04
2023-03-22T02:16:57.170Z,65.01
2023-03-22T02:19:52.134Z,64.96
2023-03-22T02:22:58.468Z,64.94
2023-03-22T02:25:42.698Z,65.06
2023-03-22T02:28:24.302Z,64.96
2023-03-22T02:31:18.262Z,65.04
2023-03-22T02:34:27.371Z,65.05
2023-03-22T02:37:18.514Z,65.04
2023-03-22T02:39:55.182Z,65.08
2023-03-22T02:42:36.175Z,65.02
2023-03-22T02:45:16.235Z,65.12
2023-03-22T02:47:57.611Z,65.10
2023-03-22T02:50:36.720Z,65.07
2023-03-22T02:53:16.160Z,65.17
2023-03-22T02:55:53.653Z,65.32
2023-03-22T02:58:30.105Z,65.17
2023-03-22T03:01:07.333Z,65.22
2023-03-22T03:03:40.852Z,65.23
2023-03-22T03:06:19.338Z,65.31
2023-03-22T03:08:53.516Z,65.26
2023-03-22T03:11:26.018Z,65.11
2023-03-22T03:13:58.947Z,65.31
2023-03-22T03:16:36.792Z,65.30
2023-03-22T03:19:21.262Z,65.37
2023-03-22T03:22:02.218Z,65.30
2023-03-22T03:24:40.974Z,65.33
2023-03-22T03:27:20.248Z,65.31
2023-03-22T03:30:01.509Z,65.45
2023-03-22T03:32:37.549Z,65.44
2023-03-22T03:35:22.640Z,65.40
2023-03-22T03:38:01.535Z,65.55
2023-03-22T03:40:38.880Z,65.50
2023-03-22T03:43:12.087Z,65.56
2023-03-22T03:45:45.808Z,65.52
2023-03-22T03:48:22.993Z,65.62
2023-03-22T03:50:57.788Z,65.64
2023-03-22T03:53:30.313Z,65.68
2023-03-22T03:56:02.715Z,65.60
2023-03-22T03:58:40.969Z,65.73
2023-03-22T04:01:13.766Z,65.73
2023-03-22T04:04:15.618Z,65.80
2023-03-22T04:07:00.722Z,65.80
2023-03-22T04:09:37.031Z,65.75
2023-03-22T04:12:31.362Z,65.87
2023-03-22T04:15:18.354Z,65.88
2023-03-22T04:17:55.082Z,65.79
2023-03-22T04:20:29.927Z,65.85
2023-03-22T04:23:02.415Z,66.00
2023-03-22T04:25:38.029Z,65.92
2023-03-22T04:28:14.360Z,66.04
2023-03-22T04:30:46.847Z,65.99
2023-03-22T04:33:28.167Z,65.92
2023-03-22T04:36:17.588Z,66.00
2023-03-22T04:39:11.170Z,66.05
2023-03-22T04:41:44.076Z,66.11
2023-03-22T04:44:16.486Z,66.14
2023-03-22T04:46:55.993Z,66.06
2023-03-22T04:49:28.411Z,66.15
2023-03-22T04:52:01.008Z,66.12
2023-03-22T04:54:43.170Z,66.21
2023-03-22T04:57:15.580Z,66.22
2023-03-22T04:59:51.050Z,66.20
2023-03-22T05:02:23.586Z,66.20
2023-03-22T05:04:56.215Z,66.17
2023-03-22T05:07:36.607Z,66.29
2023-03-22T05:10:11.031Z,66.30
2023-03-22T05:12:42.646Z,66.37
2023-03-22T05:15:22.771Z,66.31
2023-03-22T05:17:56.864Z,66.39
2023-03-22T05:20:29.262Z,66.53
2023-03-22T05:23:23.636Z,66.41
2023-03-22T05:26:01.748Z,66.55
2023-03-22T05:28:34.511Z,66.51
2023-03-22T05:31:15.691Z,66.54
2023-03-22T05:33:53.286Z,66.57
2023-03-22T05:36:26.212Z,66.54
2023-03-22T05:39:24.437Z,66.56
2023-03-22T05:41:57.350Z,66.59
2023-03-22T05:44:29.794Z,66.61
2023-03-22T05:47:13.670Z,66.78
2023-03-22T05:50:07.495Z,66.75
2023-03-22T05:52:40.158Z,66.81
2023-03-22T05:55:33.343Z,66.71
2023-03-22T05:58:08.556Z,66.71
2023-03-22T06:00:43.313Z,66.78
2023-03-22T06:03:35.995Z,66.80
2023-03-22T06:06:16.684Z,66.86
2023-03-22T06:09:07.249Z,66.77
2023-03-22T06:11:47.015Z,66.93
2023-03-22T06:14:20.469Z,66.90
2023-03-22T06:17:08.247Z,66.96
2023-03-22T06:19:40.624Z,66.97
2023-03-22T06:22:13.625Z,66.98
2023-03-22T06:24:46.099Z,67.00
2023-03-22T06:27:22.588Z,67.08
2023-03-22T06:29:55.248Z,67.19
2023-03-22T06:32:30.022Z,67.19
2023-03-22T06:35:03.026Z,67.19
2023-03-22T06:37:35.419Z,67.22
2023-03-22T06:40:11.841Z,67.33
2023-03-22T06:42:44.257Z,67.29
2023-03-22T06:45:18.164Z,67.32
2023-03-22T06:47:51.832Z,67.28
2023-03-22T06:50:44.081Z,67.39
2023-03-22T06:53:24.120Z,67.38
2023-03-22T06:55:56.674Z,67.42
2023-03-22T06:58:30.078Z,67.57
2023-03-22T07:01:03.618Z,67.57
2023-03-22T07:03:37.469Z,67.56
2023-03-22T07:06:15.148Z,67.62
2023-03-22T07:08:52.017Z,67.57
2023-03-22T07:11:27.997Z,67.76
2023-03-22T07:14:05.539Z,67.62
2023-03-22T07:16:53.708Z,67.75
2023-03-22T07:19:27.863Z,67.87
2023-03-22T07:22:00.623Z,67.92
2023-03-22T07:24:33.423Z,68.00
2023-03-22T07:27:07.878Z,68.00
2023-03-22T07:29:41.342Z,67.95
2023-03-22T07:32:14.007Z,68.03
2023-03-22T07:34:59.413Z,67.95
2023-03-22T07:37:31.776Z,68.07
2023-03-22T07:40:05.338Z,68.24
2023-03-22T07:42:37.896Z,68.17
2023-03-22T07:45:28.769Z,68.27
2023-03-22T07:48:22.977Z,68.30
2023-03-22T07:51:21.529Z,68.35
2023-03-22T07:53:54.352Z,68.66
2023-03-22T07:56:26.803Z,68.47
2023-03-22T07:58:59.333Z,68.52
2023-03-22T08:01:32.008Z,68.37
2023-03-22T08:04:10.755Z,68.50
2023-03-22T08:06:54.933Z,68.79
2023-03-22T08:09:27.643Z,68.96
2023-03-22T08:12:00.954Z,68.83
2023-03-22T08:14:36.835Z,68.86
2023-03-22T08:17:12.456Z,69.07
2023-03-22T08:19:45.420Z,68.96
2023-03-22T08:22:18.552Z,69.14
2023-03-22T08:25:19.782Z,68.91
2023-03-22T08:27:53.059Z,68.95
2023-03-22T08:30:25.476Z,69.06
2023-03-22T08:32:58.388Z,69.45
2023-03-22T08:35:30.899Z,69.34
2023-03-22T08:38:03.641Z,69.27
2023-03-22T08:40:43.089Z,69.58
2023-03-22T08:43:15.475Z,69.33
2023-03-22T08:45:48.861Z,69.48
2023-03-22T08:48:22.215Z,69.52
2023-03-22T08:51:10.745Z,69.72
2023-03-22T08:54:09.798Z,69.98
2023-03-22T08:57:03.345Z,69.89
2023-03-22T08:59:59.069Z,69.90
2023-03-22T09:02:44.515Z,69.74
2023-03-22T09:05:17.101Z,70.04
2023-03-22T09:07:52.589Z,70.04
2023-03-22T09:10:41.008Z,70.01
2023-03-22T09:13:16.639Z,70.14
2023-03-22T09:15:54.686Z,70.09
2023-03-22T09:18:32.699Z,70.46
2023-03-22T09:21:10.186Z,70.53
2023-03-22T09:23:55.105Z,70.36
2023-03-22T09:26:32.642Z,70.56
2023-03-22T09:29:05.250Z,70.64
2023-03-22T09:31:39.269Z,70.70
2023-03-22T09:34:27.178Z,70.70
2023-03-22T09:37:02.530Z,70.91
2023-03-22T09:39:38.851Z,70.88
2023-03-22T09:42:29.398Z,70.90
2023-03-22T09:45:05.216Z,71.09
2023-03-22T09:47:44.988Z,71.66
2023-03-22T09:50:23.236Z,71.23
2023-03-22T09:52:56.358Z,71.29
2023-03-22T09:55:38.732Z,71.20
2023-03-22T09:58:24.672Z,71.68
2023-03-22T10:01:02.364Z,71.41
2023-03-22T10:04:14.972Z,71.84
2023-03-22T10:06:52.086Z,71.87
2023-03-22T10:09:29.718Z,71.51
2023-03-22T10:12:09.204Z,71.79
2023-03-22T10:14:47.992Z,72.09
2023-03-22T10:17:25.331Z,72.02
2023-03-22T10:20:01.875Z,72.08
2023-03-22T10:22:39.401Z,72.25
2023-03-22T10:25:17.165Z,72.40
2023-03-22T10:27:52.685Z,72.47
2023-03-22T10:30:27.542Z,72.57
2023-03-22T10:33:03.685Z,72.73
2023-03-22T10:35:36.383Z,72.59
2023-03-22T10:38:17.805Z,72.52
2023-03-22T10:40:54.083Z,72.86
2023-03-22T10:43:33.102Z,72.86
2023-03-22T10:46:09.210Z,72.94
2023-03-22T10:48:45.340Z,72.84
2023-03-22T10:51:26.751Z,72.77
2023-03-22T10:54:01.653Z,73.21
2023-03-22T10:56:33.918Z,73.05
2023-03-22T10:59:06.213Z,73.03
2023-03-22T11:01:45.260Z,73.12
2023-03-22T11:04:18.280Z,73.35
2023-03-22T11:06:56.434Z,73.53
2023-03-22T11:09:28.921Z,73.82
2023-03-22T11:12:02.394Z,73.53
2023-03-22T11:14:37.387Z,73.52
2023-03-22T11:17:14.664Z,73.77
2023-03-22T11:19:56.918Z,73.88
2023-03-22T11:22:35.872Z,73.75
2023-03-22T11:25:15.649Z,73.84
2023-03-22T11:27:56.271Z,73.94
2023-03-22T11:30:32.567Z,74.07
2023-03-22T11:33:18.806Z,74.21
2023-03-22T11:35:57.853Z,74.40
2023-03-22T11:38:36.722Z,73.87
2023-03-22T11:41:16.992Z,74.16
2023-03-22T11:43:54.368Z,74.14
2023-03-22T11:46:27.330Z,74.44
2023-03-22T11:49:03.848Z,74.49
2023-03-22T11:51:39.742Z,74.33
2023-03-22T11:54:20.786Z,74.59
2023-03-22T11:56:55.867Z,74.66
2023-03-22T11:59:27.946Z,74.44
2023-03-22T12:02:06.676Z,74.83
2023-03-22T12:04:42.177Z,74.93
2023-03-22T12:07:19.556Z,74.85
2023-03-22T12:09:59.123Z,75.21
2023-03-22T12:12:37.123Z,74.92
2023-03-22T12:15:18.847Z,75.30
2023-03-22T12:17:57.843Z,75.55
2023-03-22T12:20:41.304Z,75.49
2023-03-22T12:23:19.393Z,75.52
2023-03-22T12:25:56.386Z,75.40
2023-03-22T12:28:34.661Z,75.68
2023-03-22T12:31:11.790Z,75.31
2023-03-22T12:33:48.374Z,75.51
2023-03-22T12:36:23.398Z,75.47
2023-03-22T12:38:56.082Z,75.34
2023-03-22T12:41:33.646Z,75.43
2023-03-22T12:44:12.302Z,75.46
2023-03-22T12:46:51.816Z,75.81
2023-03-22T12:49:31.232Z,75.87
2023-03-22T12:52:13.306Z,75.56
2023-03-22T12:54:48.129Z,75.82
2023-03-22T12:57:20.957Z,76.05
2023-03-22T12:59:56.912Z,75.98
2023-03-22T13:02:32.749Z,76.33
2023-03-22T13:05:09.368Z,75.74
2023-03-22T13:07:54.458Z,76.25
2023-03-22T13:11:11.777Z,76.30
2023-03-22T13:13:48.986Z,76.60
2023-03-22T13:16:24.855Z,76.35
2023-03-22T13:19:03.197Z,76.25
2023-03-22T13:21:39.748Z,76.46
2023-03-22T13:24:26.498Z,76.50
2023-03-22T13:27:02.166Z,76.67
2023-03-22T13:29:41.969Z,76.39
2023-03-22T13:32:33.472Z,76.62
2023-03-22T13:35:22.020Z,76.66
2023-03-22T13:37:55.555Z,76.58
2023-03-22T13:40:36.307Z,76.56
2023-03-22T13:43:29.002Z,76.89
2023-03-22T13:46:44.935Z,76.67
2023-03-22T13:49:32.987Z,76.81
2023-03-22T13:52:10.672Z,76.75
2023-03-22T13:54:49.623Z,76.67
2023-03-22T13:57:45.607Z,76.79
2023-03-22T14:00:44.913Z,76.68
2023-03-22T14:03:25.664Z,76.54
2023-03-22T14:06:07.445Z,76.63
2023-03-22T14:08:41.816Z,77.02
2023-03-22T14:11:31.036Z,76.83
2023-03-22T14:14:07.925Z,77.20
2023-03-22T14:16:43.835Z,76.68
2023-03-22T14:19:21.646Z,76.94
